Sveva — IBEU — position and weather

sailwx.info

Track history (hours):
 
Tides and Currents Weather Stations Pressure Air Temp Water Temp Dewpoint Dewpoint Depression Visibility Wind Speed Wind Dir Waves Ship Positions

Sveva

Last reported at 2016-Apr-14 19:34 UTC. Time now 2016-Apr-29 15:54 UTC.
Position S 34°26' W 058°25'.
Warning: this ship's position is 14 days out of date.

Length 136 m; draft 6.9 m.

Type: Ship (hazmat cat B). MMSI: 247359000.

Date/timePositionNaut miles runAvg speedWind from/ knotsBaromVisibWave heightAir tempDewpointWater temp
2016-Apr-14 19:34S 34°26' W 058°25'1111.0
2016-Apr-14 18:33S 34°35' W 058°16'9 9.2
2016-Apr-14 17:33S 34°38' W 058°06'10 9.7
2016-Apr-14 16:34S 34°43' W 057°55'7 6.4
2016-Apr-14 15:31S 34°45' W 057°48'0 0.0
2016-Apr-14 14:22S 34°45' W 057°48'0 0.0
2016-Apr-14 13:28S 34°45' W 057°48'0 0.1
2016-Apr-14 11:10S 34°45' W 057°48'0 0.0
2016-Apr-14 10:31S 34°45' W 057°48'0 0.1
2016-Apr-14 09:28S 34°45' W 057°48'7 7.5
2016-Apr-14 08:33S 34°45' W 057°40'  
2016-Apr-10 23:32S 25°27' W 046°53'1313.0
2016-Apr-10 22:32S 25°14' W 046°49'1212.7
2016-Apr-10 21:33S 25°03' W 046°44'1312.6
2016-Apr-10 20:33S 24°51' W 046°39'1212.6
2016-Apr-10 19:33S 24°39' W 046°35'1312.5
2016-Apr-10 18:33S 24°27' W 046°31'1212.4
2016-Apr-10 17:33S 24°15' W 046°26'1212.1
2016-Apr-10 16:33S 24°04' W 046°22'7 6.6
2016-Apr-10 15:34S 23°59' W 046°17'0 0.0
2016-Apr-08 15:12S 23°59' W 046°17'0 0.0
2016-Apr-08 12:03S 23°59' W 046°17'0 0.0
2016-Apr-08 11:33S 23°59' W 046°17'5 4.8
2016-Apr-08 10:33S 24°02' W 046°21'7 7.0
2016-Apr-08 09:33S 24°09' W 046°20'0 0.1
2016-Apr-08 08:29S 24°09' W 046°20'0 0.0
2016-Apr-08 07:32S 24°09' W 046°20'0 0.0
2016-Apr-08 06:29S 24°09' W 046°20'0 0.0
2016-Apr-08 05:32S 24°09' W 046°20'0 0.0
2016-Apr-08 04:33S 24°09' W 046°20'5 5.4
2016-Apr-08 03:33S 24°14' W 046°21'1312.9
2016-Apr-08 02:33S 24°25' W 046°13'1413.4
2016-Apr-08 01:32S 24°26' W 045°58'1313.4
2016-Apr-08 00:33S 24°26' W 045°44'1313.1
2016-Apr-07 23:33S 24°26' W 045°29'9012.8
2016-Apr-07 16:33S 24°27' W 043°51'  
Track history (hours):
 
Tides and Currents Weather Stations Pressure Air Temp Water Temp Dewpoint Dewpoint Depression Visibility Wind Speed Wind Dir Waves Ship Positions

Sveva

Last reported at 2016-Apr-14 19:34 UTC. Time now 2016-Apr-29 15:54 UTC.
Position S 34°26' W 058°25'.
Warning: this ship's position is 14 days out of date.

Length 136 m; draft 6.9 m.

Type: Ship (hazmat cat B). MMSI: 247359000.

Date/timePositionNaut miles runAvg speedWind from/ knotsBaromVisibWave heightAir tempDewpointWater temp
2016-Apr-14 19:34S 34°26' W 058°25'1111.0
2016-Apr-14 18:33S 34°35' W 058°16'9 9.2
2016-Apr-14 17:33S 34°38' W 058°06'10 9.7
2016-Apr-14 16:34S 34°43' W 057°55'7 6.4
2016-Apr-14 15:31S 34°45' W 057°48'0 0.0
2016-Apr-14 14:22S 34°45' W 057°48'0 0.0
2016-Apr-14 13:28S 34°45' W 057°48'0 0.1
2016-Apr-14 11:10S 34°45' W 057°48'0 0.0
2016-Apr-14 10:31S 34°45' W 057°48'0 0.1
2016-Apr-14 09:28S 34°45' W 057°48'7 7.5
2016-Apr-14 08:33S 34°45' W 057°40'  
2016-Apr-10 23:32S 25°27' W 046°53'1313.0
2016-Apr-10 22:32S 25°14' W 046°49'1212.7
2016-Apr-10 21:33S 25°03' W 046°44'1312.6
2016-Apr-10 20:33S 24°51' W 046°39'1212.6
2016-Apr-10 19:33S 24°39' W 046°35'1312.5
2016-Apr-10 18:33S 24°27' W 046°31'1212.4
2016-Apr-10 17:33S 24°15' W 046°26'1212.1
2016-Apr-10 16:33S 24°04' W 046°22'7 6.6
2016-Apr-10 15:34S 23°59' W 046°17'0 0.0
2016-Apr-08 15:12S 23°59' W 046°17'0 0.0
2016-Apr-08 12:03S 23°59' W 046°17'0 0.0
2016-Apr-08 11:33S 23°59' W 046°17'5 4.8
2016-Apr-08 10:33S 24°02' W 046°21'7 7.0
2016-Apr-08 09:33S 24°09' W 046°20'0 0.1
2016-Apr-08 08:29S 24°09' W 046°20'0 0.0
2016-Apr-08 07:32S 24°09' W 046°20'0 0.0
2016-Apr-08 06:29S 24°09' W 046°20'0 0.0
2016-Apr-08 05:32S 24°09' W 046°20'0 0.0
2016-Apr-08 04:33S 24°09' W 046°20'5 5.4
2016-Apr-08 03:33S 24°14' W 046°21'1312.9
2016-Apr-08 02:33S 24°25' W 046°13'1413.4
2016-Apr-08 01:32S 24°26' W 045°58'1313.4
2016-Apr-08 00:33S 24°26' W 045°44'1313.1
2016-Apr-07 23:33S 24°26' W 045°29'9012.8
2016-Apr-07 16:33S 24°27' W 043°51'  

Dump ship's entire track history